METAR-berichten van nabijgelegen luchthavens

 

EHBK - Maastricht-Aachen Airport
Afstand tot station: WZW 9km
Bijgewerkt: 23-04-2024 01:55
Gedeeltelijk bewolkt
Gedeeltelijk bewolkt
 Wind vanuit N
Wind: N 6 km/h
Temperatuur: 2°C
Dauwpunt: 0°C
Vochtigheid: 87%
Luchtdruk: 1022 hPa
Bewolking: Gedeeltelijk bewolkt
Zicht: 10 km
2024/04/22 23:55 EHBK 222355Z AUTO 35003KT 9999 NSC 02/M00 Q1022
ETNG - NATO Air Base Geilenkirchen
Afstand tot station: ONO 11km
Bijgewerkt: 23-04-2024 02:00
Mist, Few clouds
Mist, Few clouds
 Wind vanuit calm
Wind: Windstil
Temperatuur: 1°C
Dauwpunt: 0°C
Vochtigheid: 93%
Luchtdruk: 1022 hPa
Overzicht: Mist
Bewolking: Licht bewolkt
Zicht: 4 km
Details bewolking: Licht bewolkt 8230 m
2024/04/23 00:00 ETNG 230000Z 00000KT 4000 BR FEW270 01/00 Q1022